Impacts METAR Board
IDs:

KLAS - Las Vegas/McCarran I, NV, US

Updated at: 1100 UTC 23 May 2018
Potential Impact None Slight Moderate High
Time 22/23Z 23/00Z 23/01Z 23/02Z 23/03Z 23/04Z 23/05Z 23/06Z 23/07Z 23/08Z 23/09Z 23/10Z 23/11Z
Temp85 85 85 83 82 81 80 78 76 75 74 72 71
Dewpt33 33 33 35 35 35 35 34 34 36 36 36 35
Altim29.74 29.74 29.73 29.74 29.75 29.77 29.78 29.79 29.79 29.79 29.79 29.80 29.81
VIS10 10 10 10 10 10 10 10 10 10 10 10 10
CIG250 250 250 250 -- -- -- -- -- -- -- -- --
CoverBKNBKNBKNBKNSCTSCTSCTFEWFEWFEWFEWSCTFEW
FltCatVFRVFRVFRVFRVFRVFRVFRVFRVFRVFRVFRVFRVFR
WX--------------------------
WDir7010022020400240220220190000
WSpd7 5 7 7 5 0 5 6 5 4 0 0 0
WGst-- -- -- -- -- -- -- -- -- -- -- -- --
Raw hourly METARs
KLAS 222256Z 07007KT 10SM FEW100 SCT150 BKN250 29/01 A2974 RMK AO2 SLP047 T02940006
KLAS 222356Z 10005KT 10SM FEW100 SCT150 BKN250 29/01 A2974 RMK AO2 SLP048 T02940006 10306 20267 56012
KLAS 230056Z 22007KT 10SM SCT120 SCT150 BKN250 29/01 A2973 RMK AO2 SLP048 T02940006
KLAS 230156Z 02007KT 10SM FEW120 SCT150 BKN250 28/02 A2974 RMK AO2 WSHFT 0116 SLP051 T02830017
KLAS 230256Z 04005KT 10SM FEW120 SCT150 SCT250 28/02 A2975 RMK AO2 SLP052 T02780017 53005
KLAS 230356Z 00000KT 10SM FEW120 FEW150 SCT250 27/02 A2977 RMK AO2 SLP058 T02720017
KLAS 230456Z 24005KT 10SM FEW120 FEW150 SCT250 27/02 A2978 RMK AO2 SLP062 T02670017
KLAS 230556Z 22006KT 10SM FEW150 FEW250 26/01 A2979 RMK AO2 SLP063 T02560011 10294 20256 51011
KLAS 230656Z 22005KT 10SM FEW150 FEW250 24/01 A2979 RMK AO2 SLP063 T02440011
KLAS 230756Z 19004KT 10SM FEW150 FEW250 24/02 A2979 RMK AO2 SLP065 T02390022 403060194
KLAS 230856Z 00000KT 10SM FEW250 23/02 A2979 RMK AO2 SLP065 T02330022 53002
KLAS 230956Z 00000KT 10SM SCT110 SCT250 22/02 A2980 RMK AO2 SLP067 T02220022
KLAS 231056Z 00000KT 10SM FEW120 22/02 A2981 RMK AO2 SLP072 T02170017



Page loaded:  11:13 UTC  |   04:13 AM Pacific  |   05:13 AM Mountain  |   06:13 AM Central  |   07:13 AM Eastern

 

ADVISORIES

FORECASTS

FORECASTS

OBSERVATIONS

USER TOOLS

ABOUT US